AirNav   Everest Fuels
 
 555 users online  

Z95 Cibecue Airport
Cibecue, Arizona, USA

GOING TO CIBECUE?


FAA INFORMATION EFFECTIVE 03 NOVEMBER 2022

Location

FAA Identifier: Z95
Lat/Long: 34-00-12.0000N 110-26-39.0000W
34-00.200000N 110-26.650000W
34.0033333,-110.4441667
(estimated)
Elevation: 5037 ft. / 1535 m (estimated)
Variation: 12E (2000)
From city: 4 miles SE of CIBECUE, AZ
Time zone: UTC -7 (year round; does not observe DST)
Zip code: 85911

Airport Operations

Airport use: Open to the public
Activation date: 10/2000
Control tower: no
ARTCC: ALBUQUERQUE CENTER
FSS: PRESCOTT FLIGHT SERVICE STATION
NOTAMs facility: PRC (NOTAM-D service available)
Attendance: UNATNDD
Wind indicator: yes
Segmented circle: no

Airport Communications

CTAF: 122.9

Airport Services

Runway Information

Runway 7/25

Dimensions: 4200 x 100 ft. / 1280 x 30 m
Surface: gravel/dirt, in poor condition
LOOSE ROCK, RUTS & BRUSH.
Operational restrictions: LND RWY 07 & TKOF RWY 25 RCMNDD; 1.5-2 PCT UPSLOPE TO NE.
RUNWAY 7  RUNWAY 25
Traffic pattern: leftleft
Obstructions: none4 ft. fence

Airport Ownership and Management from official FAA records

Ownership: Publicly-owned
Owner: WHITE MOUNTAIN APACHE TRIBE
P.O. BOX 700
WHITERIVER, AZ 85941
Phone 520-338-4346
Manager: LAREESA SANCHEZTARA CHIEF
P.O. BOX 1710
WHITERIVER, AZ 85941
Phone 928-338-5155

Airport Operational Statistics

Aircraft operations: 10/year *
100% transient general aviation
* for 12-month period ending 08 April 2021

Additional Remarks

A30A-25 SMALL HILLS S; +35 FT TANK AT RWY END 200 FT L OF CNTRLN.
A30A-07 SMALL HILLS BOTH SIDES.
DAYTIME USE ONLY; MNTS N & E.
FIRE FIGHTING ACFT INVOF ARPT APR-SEP.
ARPT GATES LOCKED - AMGR.
FOR CD CTC ALBUQUERQUE ARTCC AT 505-856-4861.

Instrument Procedures

There are no published instrument procedures at Z95.

Some nearby airports with instrument procedures:

KSOW - Show Low Regional Airport (27 nm NE)
KTYL - Taylor Airport (32 nm NE)
P13 - San Carlos Apache Airport (41 nm S)
KPAN - Payson Airport (47 nm W)
KJTC - Springerville Municipal Airport (57 nm E)
 
Loc | Ops | Rwys | IFR | FBO | Links
Com | Nav | Svcs | Stats | Notes
Area around Z95 (Cibecue Airport)
 
Road maps at: MapQuest Bing Google
 
Aerial photo
WARNING: Photo may not be current or correct
Aerial photo of Z95 (Cibecue Airport)
Do you have a better or more recent aerial photo of Cibecue Airport that you would like to share? If so, please send us your photo.

 
Sectional chart

 
Airport distance calculator
Flying to Cibecue Airport? Find the distance to fly.

From to Z95

Sunrise and sunset
Times for 29-Nov-2022
 Local
(UTC-7)
 Zulu
(UTC)
Morning civil twilight06:4113:41
Sunrise07:0814:08
Sunset17:1200:12
Evening civil twilight17:3900:39

Current date and time
Zulu (UTC)  29-Nov-2022 10:45:06
Local (UTC-7)  29-Nov-2022 03:45:06
 
METAR
KSOW 
27nm NE 
291035Z AUTO 20015G21KT 10SM CLR 03/M07 A2980 RMK AO2
KTYL 
32nm NE 
291035Z AUTO 22008G15KT 10SM CLR 02/M08 A2980 RMK AO2
KPAN 
47nm W 
291035Z AUTO 00000KT 10SM CLR 03/M03 A2985 RMK AO2 PWINO TSNO
TAF
NOTAMs
Click for the latest NOTAMs
NOTAMs are issued by the DoD/FAA and will open in a separate window not controlled by AirNav.

 

 
 

Would you like to see your business listed on this page?

 If your business provides an interesting product or service to pilots, flight crews, aircraft, or users of the Cibecue Airport, you should consider listing it here.  To start the listing process, click on the button below
 
Add a business
 

Other Pages about Cibecue Airport

Update a link
 
Copyright © AirNav, LLC. All rights reserved. Privacy Policy  Contact